sensor_id;sensor_type;location;lat;lon;timestamp;P1;durP1;ratioP1;P2;durP2;ratioP2
56381;SDS011;50261;51.150;4.470;2023-02-20T00:02:17;15.77;;;9.75;;
56381;SDS011;50261;51.150;4.470;2023-02-20T00:04:42;17.02;;;10.20;;
56381;SDS011;50261;51.150;4.470;2023-02-20T00:07:08;16.70;;;9.23;;
56381;SDS011;50261;51.150;4.470;2023-02-20T00:09:34;20.48;;;10.95;;
56381;SDS011;50261;51.150;4.470;2023-02-20T00:12:00;15.98;;;9.23;;
56381;SDS011;50261;51.150;4.470;2023-02-20T00:14:25;14.60;;;8.10;;
56381;SDS011;50261;51.150;4.470;2023-02-20T00:16:51;17.98;;;8.30;;
56381;SDS011;50261;51.150;4.470;2023-02-20T00:19:17;15.15;;;8.63;;
56381;SDS011;50261;51.150;4.470;2023-02-20T00:21:44;23.20;;;10.35;;
56381;SDS011;50261;51.150;4.470;2023-02-20T00:24:10;16.00;;;8.15;;
56381;SDS011;50261;51.150;4.470;2023-02-20T00:26:35;19.58;;;9.30;;
56381;SDS011;50261;51.150;4.470;2023-02-20T00:29:01;21.30;;;9.43;;
56381;SDS011;50261;51.150;4.470;2023-02-20T00:31:27;14.82;;;8.15;;
56381;SDS011;50261;51.150;4.470;2023-02-20T00:33:53;14.63;;;7.60;;
56381;SDS011;50261;51.150;4.470;2023-02-20T00:36:19;23.02;;;9.02;;
56381;SDS011;50261;51.150;4.470;2023-02-20T00:38:45;21.58;;;9.02;;
56381;SDS011;50261;51.150;4.470;2023-02-20T00:41:11;17.48;;;9.18;;
56381;SDS011;50261;51.150;4.470;2023-02-20T00:43:39;17.80;;;8.50;;
56381;SDS011;50261;51.150;4.470;2023-02-20T00:46:05;18.88;;;8.43;;
56381;SDS011;50261;51.150;4.470;2023-02-20T00:48:30;16.58;;;9.00;;
56381;SDS011;50261;51.150;4.470;2023-02-20T00:51:16;22.20;;;9.82;;
56381;SDS011;50261;51.150;4.470;2023-02-20T00:53:44;18.42;;;9.05;;
56381;SDS011;50261;51.150;4.470;2023-02-20T00:56:09;11.13;;;5.22;;
56381;SDS011;50261;51.150;4.470;2023-02-20T00:58:35;17.92;;;8.55;;
56381;SDS011;50261;51.150;4.470;2023-02-20T01:01:01;10.02;;;5.72;;
56381;SDS011;50261;51.150;4.470;2023-02-20T01:03:27;10.60;;;6.03;;
56381;SDS011;50261;51.150;4.470;2023-02-20T01:05:52;16.42;;;8.80;;
56381;SDS011;50261;51.150;4.470;2023-02-20T01:08:18;19.10;;;10.45;;
56381;SDS011;50261;51.150;4.470;2023-02-20T01:10:44;20.77;;;12.05;;
56381;SDS011;50261;51.150;4.470;2023-02-20T01:13:10;19.15;;;9.50;;
56381;SDS011;50261;51.150;4.470;2023-02-20T01:15:35;25.25;;;11.90;;
56381;SDS011;50261;51.150;4.470;2023-02-20T01:18:01;21.00;;;9.23;;
56381;SDS011;50261;51.150;4.470;2023-02-20T01:20:27;27.77;;;12.73;;
56381;SDS011;50261;51.150;4.470;2023-02-20T01:22:53;24.25;;;12.73;;
56381;SDS011;50261;51.150;4.470;2023-02-20T01:25:18;20.92;;;10.85;;
56381;SDS011;50261;51.150;4.470;2023-02-20T01:27:44;21.90;;;13.68;;
56381;SDS011;50261;51.150;4.470;2023-02-20T01:30:10;16.23;;;8.05;;
56381;SDS011;50261;51.150;4.470;2023-02-20T01:32:36;18.25;;;9.90;;
56381;SDS011;50261;51.150;4.470;2023-02-20T01:35:02;22.38;;;11.43;;
56381;SDS011;50261;51.150;4.470;2023-02-20T01:37:27;24.35;;;14.20;;
56381;SDS011;50261;51.150;4.470;2023-02-20T01:39:53;21.52;;;10.70;;
56381;SDS011;50261;51.150;4.470;2023-02-20T01:42:20;23.77;;;11.80;;
56381;SDS011;50261;51.150;4.470;2023-02-20T01:44:47;26.38;;;12.52;;
56381;SDS011;50261;51.150;4.470;2023-02-20T01:47:19;29.90;;;14.73;;
56381;SDS011;50261;51.150;4.470;2023-02-20T01:49:50;25.27;;;10.65;;
56381;SDS011;50261;51.150;4.470;2023-02-20T01:52:18;14.38;;;8.55;;
56381;SDS011;50261;51.150;4.470;2023-02-20T01:54:45;21.08;;;8.85;;
56381;SDS011;50261;51.150;4.470;2023-02-20T01:57:13;23.75;;;11.77;;
56381;SDS011;50261;51.150;4.470;2023-02-20T01:59:41;18.88;;;10.07;;
56381;SDS011;50261;51.150;4.470;2023-02-20T02:02:10;22.60;;;11.52;;
56381;SDS011;50261;51.150;4.470;2023-02-20T02:04:38;15.35;;;8.40;;
56381;SDS011;50261;51.150;4.470;2023-02-20T02:07:04;24.52;;;14.90;;
56381;SDS011;50261;51.150;4.470;2023-02-20T02:12:03;25.70;;;12.55;;
56381;SDS011;50261;51.150;4.470;2023-02-20T02:14:29;17.42;;;9.90;;
56381;SDS011;50261;51.150;4.470;2023-02-20T02:25:12;30.65;;;14.07;;
56381;SDS011;50261;51.150;4.470;2023-02-20T02:27:46;21.02;;;9.95;;
56381;SDS011;50261;51.150;4.470;2023-02-20T02:30:35;27.27;;;13.52;;
56381;SDS011;50261;51.150;4.470;2023-02-20T02:43:02;23.00;;;12.50;;
56381;SDS011;50261;51.150;4.470;2023-02-20T02:48:21;29.75;;;14.68;;
56381;SDS011;50261;51.150;4.470;2023-02-20T02:50:44;23.27;;;11.80;;
56381;SDS011;50261;51.150;4.470;2023-02-20T02:53:11;23.27;;;13.25;;
56381;SDS011;50261;51.150;4.470;2023-02-20T02:55:38;27.85;;;10.68;;
56381;SDS011;50261;51.150;4.470;2023-02-20T02:58:03;25.90;;;13.18;;
56381;SDS011;50261;51.150;4.470;2023-02-20T03:00:38;21.98;;;12.45;;
56381;SDS011;50261;51.150;4.470;2023-02-20T03:05:46;20.45;;;10.85;;
56381;SDS011;50261;51.150;4.470;2023-02-20T03:08:17;28.70;;;12.13;;
56381;SDS011;50261;51.150;4.470;2023-02-20T03:10:46;25.33;;;12.18;;
56381;SDS011;50261;51.150;4.470;2023-02-20T03:13:13;26.77;;;12.55;;
56381;SDS011;50261;51.150;4.470;2023-02-20T03:15:43;19.95;;;10.52;;
56381;SDS011;50261;51.150;4.470;2023-02-20T03:21:10;22.40;;;10.77;;
56381;SDS011;50261;51.150;4.470;2023-02-20T03:23:39;24.17;;;10.20;;
56381;SDS011;50261;51.150;4.470;2023-02-20T03:26:08;18.90;;;8.45;;
56381;SDS011;50261;51.150;4.470;2023-02-20T03:28:39;20.55;;;7.78;;
56381;SDS011;50261;51.150;4.470;2023-02-20T03:31:20;15.27;;;8.80;;
56381;SDS011;50261;51.150;4.470;2023-02-20T03:33:54;23.10;;;8.85;;
56381;SDS011;50261;51.150;4.470;2023-02-20T03:36:47;17.25;;;7.75;;
56381;SDS011;50261;51.150;4.470;2023-02-20T03:39:35;22.67;;;9.57;;
56381;SDS011;50261;51.150;4.470;2023-02-20T03:42:20;19.08;;;8.77;;
56381;SDS011;50261;51.150;4.470;2023-02-20T03:45:16;22.20;;;9.60;;
56381;SDS011;50261;51.150;4.470;2023-02-20T03:47:43;22.80;;;9.35;;
56381;SDS011;50261;51.150;4.470;2023-02-20T03:50:12;22.25;;;9.27;;
56381;SDS011;50261;51.150;4.470;2023-02-20T03:52:39;25.20;;;8.70;;
56381;SDS011;50261;51.150;4.470;2023-02-20T03:55:05;20.33;;;9.30;;
56381;SDS011;50261;51.150;4.470;2023-02-20T03:57:36;15.25;;;6.53;;
56381;SDS011;50261;51.150;4.470;2023-02-20T04:00:04;15.32;;;9.05;;
56381;SDS011;50261;51.150;4.470;2023-02-20T04:02:41;18.55;;;8.20;;
56381;SDS011;50261;51.150;4.470;2023-02-20T04:05:15;20.00;;;8.63;;
56381;SDS011;50261;51.150;4.470;2023-02-20T04:07:44;17.00;;;5.10;;
56381;SDS011;50261;51.150;4.470;2023-02-20T04:10:14;18.25;;;6.72;;
56381;SDS011;50261;51.150;4.470;2023-02-20T04:12:42;22.45;;;8.35;;
56381;SDS011;50261;51.150;4.470;2023-02-20T04:15:09;16.15;;;6.55;;
56381;SDS011;50261;51.150;4.470;2023-02-20T04:17:40;23.00;;;6.85;;
56381;SDS011;50261;51.150;4.470;2023-02-20T04:20:07;16.15;;;5.78;;
56381;SDS011;50261;51.150;4.470;2023-02-20T04:22:38;16.67;;;7.57;;
56381;SDS011;50261;51.150;4.470;2023-02-20T04:25:12;12.55;;;6.22;;
56381;SDS011;50261;51.150;4.470;2023-02-20T04:27:41;15.68;;;5.00;;
56381;SDS011;50261;51.150;4.470;2023-02-20T04:30:07;19.70;;;7.32;;
56381;SDS011;50261;51.150;4.470;2023-02-20T04:32:35;22.60;;;6.70;;
56381;SDS011;50261;51.150;4.470;2023-02-20T04:35:00;15.48;;;5.60;;
56381;SDS011;50261;51.150;4.470;2023-02-20T04:37:26;19.95;;;6.55;;
56381;SDS011;50261;51.150;4.470;2023-02-20T04:39:54;19.15;;;5.57;;
56381;SDS011;50261;51.150;4.470;2023-02-20T04:42:20;16.92;;;6.78;;
56381;SDS011;50261;51.150;4.470;2023-02-20T04:44:48;11.02;;;3.50;;
56381;SDS011;50261;51.150;4.470;2023-02-20T04:47:15;18.70;;;6.03;;
56381;SDS011;50261;51.150;4.470;2023-02-20T04:49:41;11.82;;;5.13;;
56381;SDS011;50261;51.150;4.470;2023-02-20T04:52:09;27.00;;;5.30;;
56381;SDS011;50261;51.150;4.470;2023-02-20T04:54:35;18.30;;;6.95;;
56381;SDS011;50261;51.150;4.470;2023-02-20T04:57:02;14.82;;;6.00;;
56381;SDS011;50261;51.150;4.470;2023-02-20T04:59:29;15.18;;;6.90;;
56381;SDS011;50261;51.150;4.470;2023-02-20T05:01:54;16.92;;;6.10;;
56381;SDS011;50261;51.150;4.470;2023-02-20T05:04:21;23.63;;;5.57;;
56381;SDS011;50261;51.150;4.470;2023-02-20T05:06:48;13.07;;;4.60;;
56381;SDS011;50261;51.150;4.470;2023-02-20T05:09:14;20.20;;;6.40;;
56381;SDS011;50261;51.150;4.470;2023-02-20T05:11:40;13.18;;;5.25;;
56381;SDS011;50261;51.150;4.470;2023-02-20T05:14:05;14.18;;;4.07;;
56381;SDS011;50261;51.150;4.470;2023-02-20T05:16:31;9.93;;;4.13;;
56381;SDS011;50261;51.150;4.470;2023-02-20T05:18:57;13.98;;;5.10;;
56381;SDS011;50261;51.150;4.470;2023-02-20T05:21:26;15.88;;;5.20;;
56381;SDS011;50261;51.150;4.470;2023-02-20T05:24:10;10.10;;;4.28;;
56381;SDS011;50261;51.150;4.470;2023-02-20T05:26:35;10.88;;;6.07;;
56381;SDS011;50261;51.150;4.470;2023-02-20T05:29:01;13.98;;;5.55;;
56381;SDS011;50261;51.150;4.470;2023-02-20T05:31:27;8.70;;;4.45;;
56381;SDS011;50261;51.150;4.470;2023-02-20T05:33:53;16.83;;;6.25;;
56381;SDS011;50261;51.150;4.470;2023-02-20T05:36:18;18.75;;;5.38;;
56381;SDS011;50261;51.150;4.470;2023-02-20T05:38:44;19.88;;;6.13;;
56381;SDS011;50261;51.150;4.470;2023-02-20T05:41:13;21.67;;;7.25;;
56381;SDS011;50261;51.150;4.470;2023-02-20T05:43:39;7.82;;;3.63;;
56381;SDS011;50261;51.150;4.470;2023-02-20T05:46:05;13.35;;;4.05;;
56381;SDS011;50261;51.150;4.470;2023-02-20T05:48:31;18.98;;;6.50;;
56381;SDS011;50261;51.150;4.470;2023-02-20T05:50:56;10.88;;;4.85;;
56381;SDS011;50261;51.150;4.470;2023-02-20T05:53:22;11.98;;;4.95;;
56381;SDS011;50261;51.150;4.470;2023-02-20T05:55:48;20.67;;;7.35;;
56381;SDS011;50261;51.150;4.470;2023-02-20T05:58:14;13.52;;;5.03;;
56381;SDS011;50261;51.150;4.470;2023-02-20T06:00:39;12.98;;;6.53;;
56381;SDS011;50261;51.150;4.470;2023-02-20T06:03:08;16.38;;;6.07;;
56381;SDS011;50261;51.150;4.470;2023-02-20T06:05:36;13.98;;;5.47;;
56381;SDS011;50261;51.150;4.470;2023-02-20T06:08:02;15.95;;;5.97;;
56381;SDS011;50261;51.150;4.470;2023-02-20T06:10:28;8.57;;;4.35;;
56381;SDS011;50261;51.150;4.470;2023-02-20T06:12:54;14.02;;;6.53;;
56381;SDS011;50261;51.150;4.470;2023-02-20T06:15:19;15.23;;;5.72;;
56381;SDS011;50261;51.150;4.470;2023-02-20T06:17:45;14.20;;;4.55;;
56381;SDS011;50261;51.150;4.470;2023-02-20T06:20:11;19.10;;;5.82;;
56381;SDS011;50261;51.150;4.470;2023-02-20T06:22:36;15.98;;;5.40;;
56381;SDS011;50261;51.150;4.470;2023-02-20T06:25:02;12.18;;;4.50;;
56381;SDS011;50261;51.150;4.470;2023-02-20T06:27:28;24.55;;;7.88;;
56381;SDS011;50261;51.150;4.470;2023-02-20T06:29:53;12.25;;;6.82;;
56381;SDS011;50261;51.150;4.470;2023-02-20T06:32:19;17.25;;;6.72;;
56381;SDS011;50261;51.150;4.470;2023-02-20T06:34:45;13.27;;;7.05;;
56381;SDS011;50261;51.150;4.470;2023-02-20T06:37:11;15.07;;;4.75;;
56381;SDS011;50261;51.150;4.470;2023-02-20T06:39:37;15.40;;;6.32;;
56381;SDS011;50261;51.150;4.470;2023-02-20T06:42:04;14.73;;;6.68;;
56381;SDS011;50261;51.150;4.470;2023-02-20T06:44:30;17.10;;;7.57;;
56381;SDS011;50261;51.150;4.470;2023-02-20T06:46:57;17.58;;;8.50;;
56381;SDS011;50261;51.150;4.470;2023-02-20T06:49:23;15.52;;;5.30;;
56381;SDS011;50261;51.150;4.470;2023-02-20T06:51:51;13.18;;;6.03;;
56381;SDS011;50261;51.150;4.470;2023-02-20T06:54:17;11.23;;;4.13;;
56381;SDS011;50261;51.150;4.470;2023-02-20T06:56:46;13.98;;;6.82;;
56381;SDS011;50261;51.150;4.470;2023-02-20T06:59:12;16.75;;;8.68;;
56381;SDS011;50261;51.150;4.470;2023-02-20T07:01:40;16.25;;;7.68;;
56381;SDS011;50261;51.150;4.470;2023-02-20T07:04:08;16.55;;;8.07;;
56381;SDS011;50261;51.150;4.470;2023-02-20T07:06:39;19.13;;;8.35;;
56381;SDS011;50261;51.150;4.470;2023-02-20T07:09:06;17.08;;;7.43;;
56381;SDS011;50261;51.150;4.470;2023-02-20T07:11:32;12.60;;;6.88;;
56381;SDS011;50261;51.150;4.470;2023-02-20T07:13:58;17.00;;;7.35;;
56381;SDS011;50261;51.150;4.470;2023-02-20T07:16:23;8.95;;;4.05;;
56381;SDS011;50261;51.150;4.470;2023-02-20T07:18:49;16.17;;;6.10;;
56381;SDS011;50261;51.150;4.470;2023-02-20T07:21:15;17.40;;;6.95;;
56381;SDS011;50261;51.150;4.470;2023-02-20T07:23:43;22.30;;;7.90;;
56381;SDS011;50261;51.150;4.470;2023-02-20T07:26:15;15.82;;;7.90;;
56381;SDS011;50261;51.150;4.470;2023-02-20T07:28:41;23.73;;;8.07;;
56381;SDS011;50261;51.150;4.470;2023-02-20T07:31:07;12.65;;;5.45;;
56381;SDS011;50261;51.150;4.470;2023-02-20T07:33:33;22.45;;;9.40;;
56381;SDS011;50261;51.150;4.470;2023-02-20T07:35:58;11.10;;;6.30;;
56381;SDS011;50261;51.150;4.470;2023-02-20T07:38:24;14.55;;;6.70;;
56381;SDS011;50261;51.150;4.470;2023-02-20T07:40:50;20.38;;;4.85;;
56381;SDS011;50261;51.150;4.470;2023-02-20T07:43:16;20.48;;;9.00;;
56381;SDS011;50261;51.150;4.470;2023-02-20T07:45:41;16.50;;;7.25;;
56381;SDS011;50261;51.150;4.470;2023-02-20T07:48:07;19.77;;;8.18;;
56381;SDS011;50261;51.150;4.470;2023-02-20T07:50:33;22.02;;;8.60;;
56381;SDS011;50261;51.150;4.470;2023-02-20T07:52:59;18.55;;;8.27;;
56381;SDS011;50261;51.150;4.470;2023-02-20T07:55:24;21.85;;;6.22;;
56381;SDS011;50261;51.150;4.470;2023-02-20T07:57:50;13.02;;;5.35;;
56381;SDS011;50261;51.150;4.470;2023-02-20T08:00:18;21.55;;;9.15;;
56381;SDS011;50261;51.150;4.470;2023-02-20T08:02:44;13.00;;;5.38;;
56381;SDS011;50261;51.150;4.470;2023-02-20T08:05:10;16.77;;;7.55;;
56381;SDS011;50261;51.150;4.470;2023-02-20T08:07:36;17.27;;;8.13;;
56381;SDS011;50261;51.150;4.470;2023-02-20T08:10:02;19.15;;;9.32;;
56381;SDS011;50261;51.150;4.470;2023-02-20T08:12:28;12.13;;;6.35;;
56381;SDS011;50261;51.150;4.470;2023-02-20T08:14:54;17.63;;;7.60;;
56381;SDS011;50261;51.150;4.470;2023-02-20T08:17:19;16.05;;;7.32;;
56381;SDS011;50261;51.150;4.470;2023-02-20T08:19:45;19.83;;;8.35;;
56381;SDS011;50261;51.150;4.470;2023-02-20T08:22:11;12.90;;;5.05;;
56381;SDS011;50261;51.150;4.470;2023-02-20T08:24:37;22.08;;;7.15;;
56381;SDS011;50261;51.150;4.470;2023-02-20T08:27:02;15.00;;;6.80;;
56381;SDS011;50261;51.150;4.470;2023-02-20T08:29:28;19.13;;;7.10;;
56381;SDS011;50261;51.150;4.470;2023-02-20T08:31:54;16.98;;;7.90;;
56381;SDS011;50261;51.150;4.470;2023-02-20T08:34:20;18.92;;;8.25;;
56381;SDS011;50261;51.150;4.470;2023-02-20T08:36:46;13.45;;;5.78;;
56381;SDS011;50261;51.150;4.470;2023-02-20T08:39:11;11.75;;;5.25;;
56381;SDS011;50261;51.150;4.470;2023-02-20T08:41:41;19.35;;;6.90;;
56381;SDS011;50261;51.150;4.470;2023-02-20T08:44:07;19.75;;;8.07;;
56381;SDS011;50261;51.150;4.470;2023-02-20T08:46:33;14.38;;;7.75;;
56381;SDS011;50261;51.150;4.470;2023-02-20T08:48:59;19.15;;;9.45;;
56381;SDS011;50261;51.150;4.470;2023-02-20T08:51:24;13.65;;;6.60;;
56381;SDS011;50261;51.150;4.470;2023-02-20T08:53:51;17.75;;;7.13;;
56381;SDS011;50261;51.150;4.470;2023-02-20T08:56:17;12.93;;;5.65;;
56381;SDS011;50261;51.150;4.470;2023-02-20T08:58:43;24.13;;;9.63;;
56381;SDS011;50261;51.150;4.470;2023-02-20T09:01:08;16.88;;;8.18;;
56381;SDS011;50261;51.150;4.470;2023-02-20T09:03:34;19.98;;;9.50;;
56381;SDS011;50261;51.150;4.470;2023-02-20T09:06:03;20.40;;;9.63;;
56381;SDS011;50261;51.150;4.470;2023-02-20T09:08:29;21.77;;;9.18;;
56381;SDS011;50261;51.150;4.470;2023-02-20T09:10:55;18.17;;;8.75;;
56381;SDS011;50261;51.150;4.470;2023-02-20T09:13:20;23.63;;;9.32;;
56381;SDS011;50261;51.150;4.470;2023-02-20T09:15:46;12.05;;;6.47;;
56381;SDS011;50261;51.150;4.470;2023-02-20T09:18:12;15.35;;;8.68;;
56381;SDS011;50261;51.150;4.470;2023-02-20T09:20:38;23.05;;;10.30;;
56381;SDS011;50261;51.150;4.470;2023-02-20T09:23:05;16.20;;;9.88;;
56381;SDS011;50261;51.150;4.470;2023-02-20T09:25:30;22.45;;;11.05;;
56381;SDS011;50261;51.150;4.470;2023-02-20T09:27:56;9.88;;;5.90;;
56381;SDS011;50261;51.150;4.470;2023-02-20T09:30:22;19.20;;;10.55;;
56381;SDS011;50261;51.150;4.470;2023-02-20T09:32:48;14.88;;;5.70;;
56381;SDS011;50261;51.150;4.470;2023-02-20T09:35:18;17.90;;;8.40;;
56381;SDS011;50261;51.150;4.470;2023-02-20T09:37:44;20.92;;;8.80;;
56381;SDS011;50261;51.150;4.470;2023-02-20T09:40:10;23.42;;;11.80;;
56381;SDS011;50261;51.150;4.470;2023-02-20T09:42:38;18.45;;;9.35;;
56381;SDS011;50261;51.150;4.470;2023-02-20T09:45:15;21.50;;;12.50;;
56381;SDS011;50261;51.150;4.470;2023-02-20T09:47:50;21.50;;;12.02;;
56381;SDS011;50261;51.150;4.470;2023-02-20T09:55:47;19.00;;;8.27;;
56381;SDS011;50261;51.150;4.470;2023-02-20T09:58:33;22.30;;;7.18;;
56381;SDS011;50261;51.150;4.470;2023-02-20T10:01:01;20.42;;;10.48;;
56381;SDS011;50261;51.150;4.470;2023-02-20T10:04:01;10.25;;;6.28;;
56381;SDS011;50261;51.150;4.470;2023-02-20T10:06:20;12.70;;;5.65;;
56381;SDS011;50261;51.150;4.470;2023-02-20T10:08:46;18.23;;;7.00;;
56381;SDS011;50261;51.150;4.470;2023-02-20T10:11:15;18.92;;;8.40;;
56381;SDS011;50261;51.150;4.470;2023-02-20T10:23:54;14.90;;;5.90;;
56381;SDS011;50261;51.150;4.470;2023-02-20T10:26:34;20.80;;;8.73;;
56381;SDS011;50261;51.150;4.470;2023-02-20T10:29:21;21.02;;;9.65;;
56381;SDS011;50261;51.150;4.470;2023-02-20T10:34:16;18.52;;;8.18;;
56381;SDS011;50261;51.150;4.470;2023-02-20T10:36:44;13.63;;;8.07;;
56381;SDS011;50261;51.150;4.470;2023-02-20T10:39:12;14.10;;;6.22;;
56381;SDS011;50261;51.150;4.470;2023-02-20T10:44:07;20.35;;;9.43;;
56381;SDS011;50261;51.150;4.470;2023-02-20T10:49:24;23.95;;;10.00;;
56381;SDS011;50261;51.150;4.470;2023-02-20T10:51:51;11.63;;;7.03;;
56381;SDS011;50261;51.150;4.470;2023-02-20T10:54:22;13.90;;;6.93;;
56381;SDS011;50261;51.150;4.470;2023-02-20T10:57:01;14.63;;;7.15;;
56381;SDS011;50261;51.150;4.470;2023-02-20T10:59:44;20.92;;;9.43;;
56381;SDS011;50261;51.150;4.470;2023-02-20T11:02:17;19.42;;;9.55;;
56381;SDS011;50261;51.150;4.470;2023-02-20T11:04:47;17.38;;;10.00;;
56381;SDS011;50261;51.150;4.470;2023-02-20T11:07:14;16.08;;;6.28;;
56381;SDS011;50261;51.150;4.470;2023-02-20T11:09:42;11.38;;;5.40;;
56381;SDS011;50261;51.150;4.470;2023-02-20T11:12:15;15.82;;;7.15;;
56381;SDS011;50261;51.150;4.470;2023-02-20T11:14:43;29.00;;;10.07;;
56381;SDS011;50261;51.150;4.470;2023-02-20T11:17:21;22.80;;;10.02;;
56381;SDS011;50261;51.150;4.470;2023-02-20T11:19:54;16.17;;;6.18;;
56381;SDS011;50261;51.150;4.470;2023-02-20T11:22:53;12.25;;;4.90;;
56381;SDS011;50261;51.150;4.470;2023-02-20T11:25:15;18.02;;;7.85;;
56381;SDS011;50261;51.150;4.470;2023-02-20T11:27:42;10.63;;;6.85;;
56381;SDS011;50261;51.150;4.470;2023-02-20T11:30:29;17.58;;;7.95;;
56381;SDS011;50261;51.150;4.470;2023-02-20T11:35:43;21.80;;;9.88;;
56381;SDS011;50261;51.150;4.470;2023-02-20T11:43:22;15.47;;;8.30;;
56381;SDS011;50261;51.150;4.470;2023-02-20T11:45:49;16.80;;;6.88;;
56381;SDS011;50261;51.150;4.470;2023-02-20T11:48:22;23.38;;;10.73;;
56381;SDS011;50261;51.150;4.470;2023-02-20T11:50:48;6.57;;;5.05;;
56381;SDS011;50261;51.150;4.470;2023-02-20T11:53:30;13.40;;;6.70;;
56381;SDS011;50261;51.150;4.470;2023-02-20T11:56:07;20.58;;;9.93;;
56381;SDS011;50261;51.150;4.470;2023-02-20T11:58:33;13.55;;;7.57;;
56381;SDS011;50261;51.150;4.470;2023-02-20T12:00:59;22.42;;;11.43;;
56381;SDS011;50261;51.150;4.470;2023-02-20T12:03:26;14.70;;;6.88;;
56381;SDS011;50261;51.150;4.470;2023-02-20T12:05:54;21.58;;;9.18;;
56381;SDS011;50261;51.150;4.470;2023-02-20T12:10:52;14.70;;;8.10;;
56381;SDS011;50261;51.150;4.470;2023-02-20T12:13:18;9.77;;;6.55;;
56381;SDS011;50261;51.150;4.470;2023-02-20T12:15:46;10.93;;;5.32;;
56381;SDS011;50261;51.150;4.470;2023-02-20T12:18:23;10.05;;;5.25;;
56381;SDS011;50261;51.150;4.470;2023-02-20T12:20:59;13.05;;;8.82;;
56381;SDS011;50261;51.150;4.470;2023-02-20T12:23:45;15.10;;;7.60;;
56381;SDS011;50261;51.150;4.470;2023-02-20T12:38:48;18.63;;;8.57;;
56381;SDS011;50261;51.150;4.470;2023-02-20T12:41:28;12.18;;;8.13;;
56381;SDS011;50261;51.150;4.470;2023-02-20T12:44:01;16.17;;;7.03;;
56381;SDS011;50261;51.150;4.470;2023-02-20T12:51:50;13.80;;;6.70;;
56381;SDS011;50261;51.150;4.470;2023-02-20T12:54:26;17.45;;;5.40;;
56381;SDS011;50261;51.150;4.470;2023-02-20T12:56:57;10.32;;;4.28;;
56381;SDS011;50261;51.150;4.470;2023-02-20T13:01:52;12.02;;;6.10;;
56381;SDS011;50261;51.150;4.470;2023-02-20T13:11:53;8.50;;;5.03;;
56381;SDS011;50261;51.150;4.470;2023-02-20T13:14:33;10.35;;;4.40;;
56381;SDS011;50261;51.150;4.470;2023-02-20T13:17:17;7.50;;;4.00;;
56381;SDS011;50261;51.150;4.470;2023-02-20T13:22:27;11.05;;;6.10;;
56381;SDS011;50261;51.150;4.470;2023-02-20T13:24:52;13.18;;;5.93;;
56381;SDS011;50261;51.150;4.470;2023-02-20T13:27:28;15.27;;;6.13;;
56381;SDS011;50261;51.150;4.470;2023-02-20T13:29:55;9.98;;;6.07;;
56381;SDS011;50261;51.150;4.470;2023-02-20T13:32:26;14.70;;;6.93;;
56381;SDS011;50261;51.150;4.470;2023-02-20T13:34:53;18.40;;;7.85;;
56381;SDS011;50261;51.150;4.470;2023-02-20T13:37:54;18.05;;;7.50;;
56381;SDS011;50261;51.150;4.470;2023-02-20T13:43:33;12.13;;;5.20;;
56381;SDS011;50261;51.150;4.470;2023-02-20T13:45:40;12.65;;;5.63;;
56381;SDS011;50261;51.150;4.470;2023-02-20T13:50:50;13.73;;;6.85;;
56381;SDS011;50261;51.150;4.470;2023-02-20T13:53:36;14.63;;;7.05;;
56381;SDS011;50261;51.150;4.470;2023-02-20T13:56:01;16.40;;;6.15;;
56381;SDS011;50261;51.150;4.470;2023-02-20T13:58:27;14.93;;;5.55;;
56381;SDS011;50261;51.150;4.470;2023-02-20T14:00:53;11.00;;;5.95;;
56381;SDS011;50261;51.150;4.470;2023-02-20T14:03:29;11.57;;;7.85;;
56381;SDS011;50261;51.150;4.470;2023-02-20T14:06:11;11.23;;;6.57;;
56381;SDS011;50261;51.150;4.470;2023-02-20T14:08:38;13.13;;;6.00;;
56381;SDS011;50261;51.150;4.470;2023-02-20T14:11:13;8.13;;;4.70;;
56381;SDS011;50261;51.150;4.470;2023-02-20T14:13:40;12.73;;;7.03;;
56381;SDS011;50261;51.150;4.470;2023-02-20T14:18:59;17.40;;;7.40;;
56381;SDS011;50261;51.150;4.470;2023-02-20T14:21:25;16.23;;;5.90;;
56381;SDS011;50261;51.150;4.470;2023-02-20T14:23:51;14.98;;;6.97;;
56381;SDS011;50261;51.150;4.470;2023-02-20T14:26:18;16.00;;;6.82;;
56381;SDS011;50261;51.150;4.470;2023-02-20T14:28:46;12.38;;;5.97;;
56381;SDS011;50261;51.150;4.470;2023-02-20T14:33:38;11.50;;;5.20;;
56381;SDS011;50261;51.150;4.470;2023-02-20T14:36:11;12.23;;;6.57;;
56381;SDS011;50261;51.150;4.470;2023-02-20T14:38:43;17.80;;;7.60;;
56381;SDS011;50261;51.150;4.470;2023-02-20T14:41:17;12.00;;;6.93;;
56381;SDS011;50261;51.150;4.470;2023-02-20T14:43:43;14.48;;;5.97;;
56381;SDS011;50261;51.150;4.470;2023-02-20T14:46:19;11.27;;;4.93;;
56381;SDS011;50261;51.150;4.470;2023-02-20T14:48:46;14.45;;;4.90;;
56381;SDS011;50261;51.150;4.470;2023-02-20T14:53:37;15.30;;;6.82;;
56381;SDS011;50261;51.150;4.470;2023-02-20T14:56:10;18.00;;;7.68;;
56381;SDS011;50261;51.150;4.470;2023-02-20T14:58:36;15.43;;;6.28;;
56381;SDS011;50261;51.150;4.470;2023-02-20T15:01:12;11.70;;;6.13;;
56381;SDS011;50261;51.150;4.470;2023-02-20T15:03:38;15.82;;;6.60;;
56381;SDS011;50261;51.150;4.470;2023-02-20T15:06:04;15.13;;;6.28;;
56381;SDS011;50261;51.150;4.470;2023-02-20T15:08:31;9.30;;;5.32;;
56381;SDS011;50261;51.150;4.470;2023-02-20T15:10:57;13.73;;;5.38;;
56381;SDS011;50261;51.150;4.470;2023-02-20T15:13:33;12.27;;;6.47;;
56381;SDS011;50261;51.150;4.470;2023-02-20T15:18:44;16.58;;;6.53;;
56381;SDS011;50261;51.150;4.470;2023-02-20T15:21:11;10.32;;;5.97;;
56381;SDS011;50261;51.150;4.470;2023-02-20T15:23:41;16.52;;;6.90;;
56381;SDS011;50261;51.150;4.470;2023-02-20T15:26:27;14.95;;;6.00;;
56381;SDS011;50261;51.150;4.470;2023-02-20T15:31:38;11.15;;;5.30;;
56381;SDS011;50261;51.150;4.470;2023-02-20T15:34:11;17.88;;;6.70;;
56381;SDS011;50261;51.150;4.470;2023-02-20T15:36:37;13.60;;;7.70;;
56381;SDS011;50261;51.150;4.470;2023-02-20T15:39:02;14.70;;;7.78;;
56381;SDS011;50261;51.150;4.470;2023-02-20T15:41:28;12.65;;;7.00;;
56381;SDS011;50261;51.150;4.470;2023-02-20T15:43:54;12.43;;;5.95;;
56381;SDS011;50261;51.150;4.470;2023-02-20T15:46:20;16.08;;;6.78;;
56381;SDS011;50261;51.150;4.470;2023-02-20T15:48:46;15.57;;;6.15;;
56381;SDS011;50261;51.150;4.470;2023-02-20T15:51:12;18.35;;;7.25;;
56381;SDS011;50261;51.150;4.470;2023-02-20T15:53:39;12.88;;;7.30;;
56381;SDS011;50261;51.150;4.470;2023-02-20T15:56:09;14.18;;;7.97;;
56381;SDS011;50261;51.150;4.470;2023-02-20T15:58:35;12.20;;;7.47;;
56381;SDS011;50261;51.150;4.470;2023-02-20T16:01:02;15.40;;;7.70;;
56381;SDS011;50261;51.150;4.470;2023-02-20T16:03:29;11.63;;;6.70;;
56381;SDS011;50261;51.150;4.470;2023-02-20T16:05:55;15.95;;;7.32;;
56381;SDS011;50261;51.150;4.470;2023-02-20T16:08:22;12.98;;;7.05;;
56381;SDS011;50261;51.150;4.470;2023-02-20T16:10:48;15.85;;;7.53;;
56381;SDS011;50261;51.150;4.470;2023-02-20T16:15:48;13.70;;;7.20;;
56381;SDS011;50261;51.150;4.470;2023-02-20T16:18:14;13.68;;;6.97;;
56381;SDS011;50261;51.150;4.470;2023-02-20T16:20:40;13.20;;;6.57;;
56381;SDS011;50261;51.150;4.470;2023-02-20T16:23:06;14.00;;;5.85;;
56381;SDS011;50261;51.150;4.470;2023-02-20T16:25:33;11.02;;;5.38;;
56381;SDS011;50261;51.150;4.470;2023-02-20T16:27:58;19.52;;;7.25;;
56381;SDS011;50261;51.150;4.470;2023-02-20T16:32:52;13.05;;;7.20;;
56381;SDS011;50261;51.150;4.470;2023-02-20T16:35:18;12.35;;;6.38;;
56381;SDS011;50261;51.150;4.470;2023-02-20T16:37:44;15.45;;;6.53;;
56381;SDS011;50261;51.150;4.470;2023-02-20T16:40:09;9.15;;;5.32;;